Time;durP1;ratioP1;P1;durP2;ratioP2;P2;SDS_P1;SDS_P2;PMS_P1;PMS_P2;Temp;Humidity;BMP_temperature;BMP_pressure;BME280_temperature;BME280_humidity;BME280_pressure;Samples;Min_cycle;Max_cycle;Signal;HPM_P1;HPM_P2
2022/09/18 00:02:13;;;;;;;0.00;0.00;;;9.90;99.90;;;;;;5039559;28;20136;-81
2022/09/18 00:04:38;;;;;;;0.00;0.00;;;9.90;99.90;;;;;;5088853;28;20492;-82
2022/09/18 00:07:04;;;;;;;0.00;0.00;;;9.90;99.90;;;;;;5088324;28;20435;-82
2022/09/18 00:09:30;;;;;;;0.05;0.05;;;9.90;99.90;;;;;;5087622;28;20511;-82
2022/09/18 00:11:56;;;;;;;0.00;0.00;;;10.00;99.90;;;;;;5071146;28;20045;-82
2022/09/18 00:14:22;;;;;;;0.00;0.00;;;9.90;99.90;;;;;;5071038;28;20048;-82
2022/09/18 00:16:49;;;;;;;0.00;0.00;;;10.00;99.90;;;;;;5070660;28;20076;-82
2022/09/18 00:19:16;;;;;;;0.00;0.00;;;10.00;99.90;;;;;;5087619;28;20189;-82
2022/09/18 00:21:44;;;;;;;0.00;0.00;;;10.10;99.90;;;;;;5070857;28;20044;-82
2022/09/18 00:24:11;;;;;;;0.00;0.00;;;10.00;99.90;;;;;;5087836;28;20044;-82
2022/09/18 00:26:37;;;;;;;0.00;0.00;;;10.00;99.90;;;;;;5053910;28;20051;-81
2022/09/18 00:29:03;;;;;;;0.00;0.00;;;9.90;99.90;;;;;;5070474;28;20107;-82
2022/09/18 00:31:32;;;;;;;0.00;0.00;;;10.10;99.90;;;;;;5070522;28;20070;-82
2022/09/18 00:33:59;;;;;;;0.00;0.00;;;10.00;99.90;;;;;;5070570;28;20045;-82
2022/09/18 00:36:26;;;;;;;0.20;0.20;;;10.00;99.90;;;;;;5070279;28;20102;-82
2022/09/18 00:38:52;;;;;;;0.00;0.00;;;9.90;99.90;;;;;;5053559;28;20041;-82
2022/09/18 00:41:26;;;;;;;0.00;0.00;;;10.00;99.90;;;;;;5070377;28;20052;-81
2022/09/18 00:43:58;;;;;;;0.00;0.00;;;9.90;99.90;;;;;;5070689;28;20386;-81
2022/09/18 00:46:34;;;;;;;0.00;0.00;;;10.10;99.90;;;;;;5070313;28;20055;-82
2022/09/18 00:49:05;;;;;;;0.00;0.00;;;11.10;99.90;;;;;;5087105;28;20056;-82
2022/09/18 00:51:35;;;;;;;0.08;0.08;;;9.80;99.90;;;;;;5070104;28;20515;-82
2022/09/18 00:54:33;;;;;;;0.00;0.00;;;9.80;99.90;;;;;;5070215;28;20051;-82
2022/09/18 00:57:04;;;;;;;0.10;0.10;;;9.80;99.90;;;;;;5069898;28;20538;-82
2022/09/18 00:59:32;;;;;;;0.13;0.13;;;9.80;99.90;;;;;;5070434;28;20041;-82
2022/09/18 01:01:59;;;;;;;0.00;0.00;;;9.90;99.90;;;;;;5069553;28;20481;-82
2022/09/18 01:04:26;;;;;;;0.00;0.00;;;10.00;99.90;;;;;;5070203;28;20047;-82
2022/09/18 01:07:28;;;;;;;0.00;0.00;;;9.90;99.90;;;;;;5069726;28;20102;-82
2022/09/18 01:10:15;;;;;;;0.00;0.00;;;9.90;99.90;;;;;;5087205;28;20440;-81
2022/09/18 01:13:03;;;;;;;0.00;0.00;;;9.90;99.90;;;;;;5069839;28;20037;-82
2022/09/18 01:15:56;;;;;;;0.00;0.00;;;9.90;99.90;;;;;;5069588;28;20048;-82
2022/09/18 01:18:47;;;;;;;0.00;0.00;;;9.90;99.90;;;;;;5070371;28;20048;-82
2022/09/18 01:21:49;;;;;;;0.00;0.00;;;10.00;99.90;;;;;;5086766;28;20441;-81
2022/09/18 01:24:17;;;;;;;0.00;0.00;;;10.00;99.90;;;;;;5069674;28;20500;-81
2022/09/18 01:27:00;;;;;;;0.00;0.00;;;10.00;99.90;;;;;;5086534;28;20079;-82
2022/09/18 01:29:59;;;;;;;0.15;0.15;;;10.10;99.90;;;;;;5053014;28;20044;-82
2022/09/18 01:32:37;;;;;;;0.00;0.00;;;10.10;99.90;;;;;;5086477;28;20044;-82
2022/09/18 01:35:14;;;;;;;0.00;0.00;;;10.20;99.90;;;;;;5086551;28;20511;-81
2022/09/18 01:38:01;;;;;;;0.00;0.00;;;10.10;99.90;;;;;;5070238;28;20147;-82
2022/09/18 01:40:39;;;;;;;0.00;0.00;;;10.20;99.90;;;;;;5073654;28;20064;-82
2022/09/18 01:43:08;;;;;;;0.00;0.00;;;10.20;99.90;;;;;;5073467;28;20098;-82
2022/09/18 01:45:40;;;;;;;0.00;0.00;;;10.30;99.90;;;;;;5073619;28;20049;-82
2022/09/18 01:48:07;;;;;;;0.00;0.00;;;10.40;99.90;;;;;;5073820;28;20045;-82
2022/09/18 01:50:38;;;;;;;0.00;0.00;;;10.40;99.90;;;;;;5090254;28;20052;-82
2022/09/18 01:53:26;;;;;;;0.00;0.00;;;10.40;99.90;;;;;;5090414;28;20080;-82
2022/09/18 01:55:57;;;;;;;0.00;0.00;;;10.40;99.90;;;;;;5090501;28;20060;-82
2022/09/18 01:58:25;;;;;;;0.00;0.00;;;10.60;99.90;;;;;;5074018;28;20397;-82
2022/09/18 02:00:54;;;;;;;0.00;0.00;;;10.40;99.90;;;;;;5090085;28;20393;-82
2022/09/18 02:03:38;;;;;;;0.00;0.00;;;10.50;99.90;;;;;;5073236;28;20053;-82
2022/09/18 02:06:09;;;;;;;0.00;0.00;;;10.50;99.90;;;;;;5089955;28;20057;-82
2022/09/18 02:08:44;;;;;;;0.00;0.00;;;10.50;99.90;;;;;;5090053;28;20049;-82
2022/09/18 02:11:12;;;;;;;0.00;0.00;;;10.50;99.90;;;;;;5089850;28;20048;-82
2022/09/18 02:13:59;;;;;;;0.00;0.00;;;10.50;99.90;;;;;;5072867;28;20079;-82
2022/09/18 02:16:24;;;;;;;0.00;0.00;;;10.50;99.90;;;;;;5039124;28;20059;-82
2022/09/18 02:18:55;;;;;;;2.28;0.60;;;10.50;99.90;;;;;;5073353;28;20045;-82
2022/09/18 02:21:29;;;;;;;0.00;0.00;;;10.60;99.90;;;;;;5089600;28;20527;-82
2022/09/18 02:24:05;;;;;;;0.00;0.00;;;10.60;99.90;;;;;;5089887;28;20067;-82
2022/09/18 02:26:33;;;;;;;0.00;0.00;;;10.50;99.90;;;;;;5072838;28;20291;-82
2022/09/18 02:29:01;;;;;;;0.00;0.00;;;10.50;99.90;;;;;;5072650;28;20110;-82
2022/09/18 02:31:27;;;;;;;0.00;0.00;;;10.60;99.90;;;;;;5089528;28;20045;-82
2022/09/18 02:33:53;;;;;;;0.00;0.00;;;10.60;99.90;;;;;;5072519;28;20374;-82
2022/09/18 02:36:21;;;;;;;0.00;0.00;;;10.60;99.90;;;;;;5055734;28;20052;-82
2022/09/18 02:39:09;;;;;;;0.00;0.00;;;10.60;99.90;;;;;;5072221;28;20106;-82
2022/09/18 02:41:50;;;;;;;0.13;0.00;;;10.60;99.90;;;;;;5089599;28;20041;-82
2022/09/18 02:44:19;;;;;;;0.00;0.00;;;10.60;99.90;;;;;;5072920;28;20048;-82
2022/09/18 02:47:10;;;;;;;0.00;0.00;;;10.60;99.90;;;;;;5072366;28;20396;-82
2022/09/18 02:49:54;;;;;;;0.00;0.00;;;10.60;99.90;;;;;;5072014;28;20056;-82
2022/09/18 02:52:33;;;;;;;0.00;0.00;;;10.60;99.90;;;;;;5072706;28;20460;-82
2022/09/18 02:55:14;;;;;;;0.00;0.00;;;10.60;99.90;;;;;;5072671;28;20052;-82
2022/09/18 02:57:47;;;;;;;0.00;0.00;;;10.60;99.90;;;;;;5071543;28;20057;-82
2022/09/18 03:00:17;;;;;;;0.00;0.00;;;10.70;99.90;;;;;;5088992;28;20053;-82
2022/09/18 03:02:44;;;;;;;0.00;0.00;;;10.80;99.90;;;;;;5089279;28;20049;-81
2022/09/18 03:05:10;;;;;;;0.00;0.00;;;10.70;99.90;;;;;;5071990;28;20094;-81
2022/09/18 03:07:36;;;;;;;0.10;0.10;;;10.70;99.90;;;;;;5071677;28;20463;-81
2022/09/18 03:10:02;;;;;;;3.10;0.38;;;10.70;99.90;;;;;;5071709;28;20477;-82
2022/09/18 03:12:27;;;;;;;0.00;0.00;;;10.70;99.90;;;;;;5088748;28;20094;-82
2022/09/18 03:14:53;;;;;;;0.00;0.00;;;11.00;99.90;;;;;;5087972;28;20519;-82
2022/09/18 03:17:19;;;;;;;0.00;0.00;;;10.70;99.90;;;;;;5071820;28;20549;-81
2022/09/18 03:19:45;;;;;;;0.00;0.00;;;10.60;99.90;;;;;;5071618;28;20124;-81
2022/09/18 03:22:11;;;;;;;0.00;0.00;;;11.10;99.90;;;;;;5071695;28;20041;-82
2022/09/18 03:24:37;;;;;;;0.00;0.00;;;10.80;99.90;;;;;;5071497;28;20485;-82
2022/09/18 03:27:03;;;;;;;0.00;0.00;;;10.90;99.90;;;;;;5088528;28;20051;-82
2022/09/18 03:29:29;;;;;;;0.00;0.00;;;10.80;99.90;;;;;;5088337;28;20488;-82
2022/09/18 03:31:55;;;;;;;0.00;0.00;;;10.80;99.90;;;;;;5088324;28;20072;-82
2022/09/18 03:34:20;;;;;;;0.00;0.00;;;10.80;99.90;;;;;;5071427;28;20469;-82
2022/09/18 03:36:46;;;;;;;1.13;0.25;;;10.90;99.90;;;;;;5088088;28;20053;-83
2022/09/18 03:39:12;;;;;;;0.00;0.00;;;10.80;99.90;;;;;;5087563;28;20516;-82
2022/09/18 03:41:38;;;;;;;0.00;0.00;;;11.00;99.90;;;;;;5071349;28;20129;-82
2022/09/18 03:44:04;;;;;;;0.00;0.00;;;10.80;99.90;;;;;;5071256;28;20045;-82
2022/09/18 03:46:30;;;;;;;0.00;0.00;;;10.80;99.90;;;;;;5071686;28;20045;-82
2022/09/18 03:48:55;;;;;;;0.00;0.00;;;10.90;99.90;;;;;;5071650;28;20492;-82
2022/09/18 03:51:21;;;;;;;0.00;0.00;;;10.80;99.90;;;;;;5071197;28;20388;-82
2022/09/18 03:53:49;;;;;;;0.00;0.00;;;10.80;99.90;;;;;;5087003;28;20048;-82
2022/09/18 03:56:16;;;;;;;0.08;0.05;;;10.90;99.90;;;;;;5069791;28;20095;-83
2022/09/18 03:58:42;;;;;;;0.25;0.20;;;10.90;99.90;;;;;;5068747;28;20045;-82
2022/09/18 04:01:08;;;;;;;0.00;0.00;;;10.90;99.90;;;;;;5070097;28;20135;-82
2022/09/18 04:03:34;;;;;;;0.00;0.00;;;10.90;99.90;;;;;;5070873;28;20136;-82
2022/09/18 04:06:01;;;;;;;0.00;0.00;;;11.00;99.90;;;;;;5087492;28;20041;-83
2022/09/18 04:08:27;;;;;;;0.00;0.00;;;10.90;99.90;;;;;;5070760;28;20051;-82
2022/09/18 04:10:52;;;;;;;0.75;0.25;;;10.90;99.90;;;;;;5070755;28;20049;-83
2022/09/18 04:13:18;;;;;;;0.00;0.00;;;11.10;99.90;;;;;;5088290;28;20103;-81
2022/09/18 04:15:46;;;;;;;0.00;0.00;;;10.90;99.90;;;;;;5070632;28;20084;-81
2022/09/18 04:18:12;;;;;;;0.00;0.00;;;10.90;99.90;;;;;;5070496;28;20041;-82
2022/09/18 04:20:38;;;;;;;0.00;0.00;;;10.90;99.90;;;;;;5070745;28;20049;-81
2022/09/18 04:23:04;;;;;;;0.00;0.00;;;10.80;99.90;;;;;;5070437;28;20049;-81
2022/09/18 04:25:29;;;;;;;0.00;0.00;;;10.80;99.90;;;;;;5087195;28;20184;-82
2022/09/18 04:27:56;;;;;;;0.00;0.00;;;10.70;99.90;;;;;;5071061;28;20048;-81
2022/09/18 04:30:21;;;;;;;0.00;0.00;;;10.80;99.90;;;;;;5087047;28;20053;-81
2022/09/18 04:32:47;;;;;;;0.00;0.00;;;10.60;99.90;;;;;;5070822;28;20069;-81
2022/09/18 04:35:13;;;;;;;0.00;0.00;;;10.70;99.90;;;;;;5086814;28;20059;-82
2022/09/18 04:37:38;;;;;;;0.00;0.00;;;10.70;99.90;;;;;;5086922;28;20052;-82
2022/09/18 04:40:06;;;;;;;0.00;0.00;;;10.70;99.90;;;;;;5086720;28;20049;-82
2022/09/18 04:42:32;;;;;;;0.00;0.00;;;10.70;99.90;;;;;;5070024;28;20045;-82
2022/09/18 04:44:57;;;;;;;0.00;0.00;;;10.70;99.90;;;;;;5070363;28;20049;-82
2022/09/18 04:47:23;;;;;;;0.00;0.00;;;10.70;99.90;;;;;;5086998;28;20045;-82
2022/09/18 04:49:49;;;;;;;0.00;0.00;;;10.70;99.90;;;;;;5086705;28;20064;-82
2022/09/18 04:52:14;;;;;;;0.00;0.00;;;10.70;99.90;;;;;;5069884;28;20164;-82
2022/09/18 04:54:40;;;;;;;0.00;0.00;;;10.70;99.90;;;;;;5069877;28;20056;-82
2022/09/18 04:57:06;;;;;;;0.00;0.00;;;10.80;99.90;;;;;;5052846;28;20053;-82
2022/09/18 04:59:31;;;;;;;0.00;0.00;;;10.70;99.90;;;;;;5086356;28;20045;-82
2022/09/18 05:01:58;;;;;;;0.00;0.00;;;10.80;99.90;;;;;;5069795;28;20374;-82
2022/09/18 05:04:24;;;;;;;0.00;0.00;;;10.60;99.90;;;;;;5086648;28;20052;-82
2022/09/18 05:06:49;;;;;;;0.10;0.00;;;10.70;99.90;;;;;;5086536;28;20393;-82
2022/09/18 05:09:15;;;;;;;0.00;0.00;;;11.70;99.90;;;;;;5086293;28;20041;-82
2022/09/18 05:11:41;;;;;;;0.00;0.00;;;10.70;99.90;;;;;;5069313;28;20370;-82
2022/09/18 05:14:07;;;;;;;0.00;0.00;;;10.90;99.90;;;;;;5069116;28;20045;-82
2022/09/18 05:16:33;;;;;;;0.03;0.03;;;10.70;99.90;;;;;;5069774;28;20166;-82
2022/09/18 05:18:59;;;;;;;0.00;0.00;;;10.90;99.90;;;;;;5069190;28;20197;-82
2022/09/18 05:21:24;;;;;;;0.55;0.43;;;10.80;99.90;;;;;;5069534;28;20271;-82
2022/09/18 05:23:50;;;;;;;0.13;0.13;;;11.00;99.90;;;;;;5086222;28;20510;-82
2022/09/18 05:26:16;;;;;;;0.00;0.00;;;10.70;99.90;;;;;;5036255;28;20052;-82
2022/09/18 05:28:42;;;;;;;0.15;0.15;;;10.80;99.90;;;;;;5069890;28;20036;-82
2022/09/18 05:31:08;;;;;;;0.00;0.00;;;10.90;99.90;;;;;;5069627;28;20103;-82
2022/09/18 05:33:35;;;;;;;0.00;0.00;;;10.80;99.90;;;;;;5086119;28;20059;-82
2022/09/18 05:36:01;;;;;;;0.00;0.00;;;10.80;99.90;;;;;;5086086;28;20052;-82
2022/09/18 05:38:26;;;;;;;0.25;0.25;;;10.70;99.90;;;;;;5069112;28;20044;-82
2022/09/18 05:40:52;;;;;;;0.00;0.00;;;10.80;99.90;;;;;;5086706;28;20092;-82
2022/09/18 05:43:18;;;;;;;0.00;0.00;;;10.80;99.90;;;;;;5069155;28;20044;-82
2022/09/18 05:45:43;;;;;;;0.00;0.00;;;10.50;99.90;;;;;;5069173;28;20052;-82
2022/09/18 05:48:13;;;;;;;0.00;0.00;;;10.30;99.90;;;;;;5069362;28;20088;-82
2022/09/18 05:50:41;;;;;;;0.00;0.00;;;10.80;99.90;;;;;;5086057;28;20049;-82
2022/09/18 05:53:14;;;;;;;0.00;0.00;;;10.80;99.90;;;;;;5069227;28;20051;-81
2022/09/18 05:55:40;;;;;;;0.00;0.00;;;10.70;99.90;;;;;;5069428;28;20052;-81
2022/09/18 05:58:09;;;;;;;0.00;0.00;;;10.90;99.90;;;;;;5068633;28;20460;-81
2022/09/18 06:00:35;;;;;;;0.00;0.00;;;10.80;99.90;;;;;;5069099;28;20096;-80
2022/09/18 06:03:03;;;;;;;0.00;0.00;;;10.70;99.90;;;;;;5068862;28;20472;-81
2022/09/18 06:05:32;;;;;;;0.00;0.00;;;10.80;99.90;;;;;;5085994;28;20049;-82
2022/09/18 06:07:59;;;;;;;0.00;0.00;;;10.90;99.90;;;;;;5085905;28;20439;-82
2022/09/18 06:10:26;;;;;;;0.00;0.00;;;11.00;99.90;;;;;;5085820;28;20508;-81
2022/09/18 06:13:06;;;;;;;0.00;0.00;;;10.90;99.90;;;;;;5069040;28;20159;-81
2022/09/18 06:15:32;;;;;;;0.00;0.00;;;10.80;99.90;;;;;;5068991;28;20057;-82
2022/09/18 06:17:58;;;;;;;0.75;0.28;;;10.80;99.90;;;;;;5068677;28;20045;-81
2022/09/18 06:20:24;;;;;;;0.00;0.00;;;10.90;99.90;;;;;;5068953;28;20059;-82
2022/09/18 06:22:49;;;;;;;0.00;0.00;;;10.80;99.90;;;;;;5069377;28;20037;-81
2022/09/18 06:25:18;;;;;;;0.00;0.00;;;10.80;99.90;;;;;;5072073;28;20041;-81
2022/09/18 06:27:44;;;;;;;0.00;0.00;;;10.80;99.90;;;;;;5072638;28;20590;-81
2022/09/18 06:30:10;;;;;;;0.00;0.00;;;10.90;99.90;;;;;;5072272;28;20073;-82
2022/09/18 06:32:36;;;;;;;0.00;0.00;;;10.80;99.90;;;;;;5055566;28;20399;-81
2022/09/18 06:35:02;;;;;;;0.22;0.08;;;10.90;99.90;;;;;;5072215;28;20041;-80
2022/09/18 06:37:28;;;;;;;0.00;0.00;;;10.80;99.90;;;;;;5072274;28;20174;-81
2022/09/18 06:39:53;;;;;;;0.00;0.00;;;10.80;99.90;;;;;;5088731;28;20519;-81
2022/09/18 06:42:19;;;;;;;0.00;0.00;;;10.90;99.90;;;;;;5089395;28;20357;-81
2022/09/18 06:44:45;;;;;;;0.00;0.00;;;10.90;99.90;;;;;;5089403;28;20045;-81
2022/09/18 06:47:10;;;;;;;0.00;0.00;;;10.90;99.90;;;;;;5072097;28;20102;-81
2022/09/18 06:49:36;;;;;;;0.00;0.00;;;10.80;99.90;;;;;;5072103;28;20132;-81
2022/09/18 06:52:02;;;;;;;0.00;0.00;;;10.90;99.90;;;;;;5071872;28;20507;-81
2022/09/18 06:54:27;;;;;;;0.00;0.00;;;10.90;99.90;;;;;;5071914;28;20205;-82
2022/09/18 06:56:53;;;;;;;0.00;0.00;;;10.90;99.90;;;;;;5071556;28;20056;-81
2022/09/18 06:59:19;;;;;;;0.00;0.00;;;10.90;99.90;;;;;;5088053;28;20049;-81
2022/09/18 07:01:48;;;;;;;0.00;0.00;;;10.90;99.90;;;;;;5071633;28;20052;-81
2022/09/18 07:04:14;;;;;;;0.00;0.00;;;10.90;99.90;;;;;;5088738;28;20048;-82
2022/09/18 07:06:42;;;;;;;0.00;0.00;;;10.90;99.90;;;;;;5088285;28;20140;-81
2022/09/18 07:09:08;;;;;;;0.22;0.22;;;10.90;99.90;;;;;;5071847;28;20481;-81
2022/09/18 07:11:35;;;;;;;0.00;0.00;;;10.90;99.90;;;;;;5071991;28;20052;-81
2022/09/18 07:14:03;;;;;;;0.00;0.00;;;10.90;99.90;;;;;;5071412;28;20432;-82
2022/09/18 07:16:29;;;;;;;0.00;0.00;;;10.90;99.90;;;;;;5071556;28;20095;-81
2022/09/18 07:18:55;;;;;;;0.00;0.00;;;10.90;99.90;;;;;;5071400;28;20073;-81
2022/09/18 07:21:20;;;;;;;0.20;0.20;;;10.90;99.90;;;;;;5088624;28;20504;-81
2022/09/18 07:23:46;;;;;;;0.00;0.00;;;11.00;99.90;;;;;;5088357;28;20041;-81
2022/09/18 07:26:13;;;;;;;0.00;0.00;;;11.30;99.90;;;;;;5071153;28;20064;-81
2022/09/18 07:28:38;;;;;;;0.00;0.00;;;11.00;99.90;;;;;;5088062;28;20060;-81
2022/09/18 07:31:05;;;;;;;0.00;0.00;;;11.10;99.90;;;;;;5071332;28;20070;-81
2022/09/18 07:33:31;;;;;;;0.00;0.00;;;11.00;99.90;;;;;;5088311;28;20044;-81
2022/09/18 07:36:00;;;;;;;0.00;0.00;;;11.00;99.90;;;;;;5070425;28;20053;-81
2022/09/18 07:38:27;;;;;;;0.00;0.00;;;11.00;99.90;;;;;;5070936;28;20037;-81
2022/09/18 07:40:52;;;;;;;0.00;0.00;;;11.00;99.90;;;;;;5087881;28;20049;-81
2022/09/18 07:43:18;;;;;;;0.00;0.00;;;11.30;99.90;;;;;;5071013;28;20052;-81
2022/09/18 07:45:44;;;;;;;0.00;0.00;;;11.00;99.90;;;;;;5071329;28;20049;-81
2022/09/18 07:48:10;;;;;;;0.70;0.20;;;11.30;99.90;;;;;;5088030;28;20393;-80
2022/09/18 07:50:36;;;;;;;0.00;0.00;;;11.20;99.90;;;;;;5071518;28;20394;-80
2022/09/18 07:53:04;;;;;;;0.00;0.00;;;11.10;99.90;;;;;;5087775;28;20049;-80
2022/09/18 07:55:32;;;;;;;0.00;0.00;;;11.10;99.90;;;;;;5087865;28;20049;-80
2022/09/18 07:58:00;;;;;;;0.00;0.00;;;11.40;99.90;;;;;;5070506;28;20075;-80
2022/09/18 08:00:27;;;;;;;0.00;0.00;;;11.20;99.90;;;;;;5088488;28;20092;-80
2022/09/18 08:03:08;;;;;;;0.00;0.00;;;11.20;99.90;;;;;;5071034;28;20052;-80
2022/09/18 08:05:34;;;;;;;0.00;0.00;;;11.10;99.90;;;;;;5037351;28;20095;-80
2022/09/18 08:08:04;;;;;;;0.00;0.00;;;11.10;99.90;;;;;;5037567;28;20061;-80
2022/09/18 08:10:30;;;;;;;0.00;0.00;;;11.10;99.90;;;;;;5070673;28;20048;-80
2022/09/18 08:12:56;;;;;;;0.00;0.00;;;11.20;99.90;;;;;;5070930;28;20146;-80
2022/09/18 08:15:21;;;;;;;0.00;0.00;;;11.10;99.90;;;;;;5070336;28;20507;-80
2022/09/18 08:17:47;;;;;;;0.00;0.00;;;11.10;99.90;;;;;;5053834;28;20080;-80
2022/09/18 08:20:13;;;;;;;0.05;0.05;;;11.10;99.90;;;;;;5087143;28;20464;-81
2022/09/18 08:22:39;;;;;;;0.00;0.00;;;11.10;99.90;;;;;;5070568;28;20393;-81
2022/09/18 08:25:06;;;;;;;0.00;0.00;;;11.10;99.90;;;;;;5070066;28;20476;-81
2022/09/18 08:27:36;;;;;;;0.35;0.20;;;11.00;99.90;;;;;;5071107;28;20060;-82
2022/09/18 08:30:04;;;;;;;0.00;0.00;;;11.00;99.90;;;;;;5070266;28;20044;-82
2022/09/18 08:32:32;;;;;;;0.00;0.00;;;11.00;99.90;;;;;;5086894;28;20459;-82
2022/09/18 08:34:59;;;;;;;0.00;0.00;;;11.00;99.90;;;;;;5070328;28;20135;-81
2022/09/18 08:37:25;;;;;;;0.00;0.00;;;11.30;99.90;;;;;;5070129;28;20061;-81
2022/09/18 08:39:51;;;;;;;0.00;0.00;;;11.00;99.90;;;;;;5087159;28;20098;-81
2022/09/18 08:42:26;;;;;;;0.00;0.00;;;11.10;99.90;;;;;;5070094;28;20088;-81
2022/09/18 08:44:58;;;;;;;0.00;0.00;;;11.00;99.90;;;;;;5087195;28;20132;-81
2022/09/18 08:47:34;;;;;;;0.00;0.00;;;11.00;99.90;;;;;;5085869;28;20492;-83
2022/09/18 08:50:20;;;;;;;0.03;0.03;;;11.10;99.90;;;;;;5034101;28;20037;-82
2022/09/18 08:53:01;;;;;;;0.28;0.08;;;11.10;99.90;;;;;;5035490;28;20049;-82
2022/09/18 08:55:32;;;;;;;0.00;0.00;;;11.10;99.90;;;;;;5035163;28;20056;-81
2022/09/18 08:58:17;;;;;;;0.00;0.00;;;11.20;99.90;;;;;;5033220;28;20122;-81
2022/09/18 09:00:54;;;;;;;0.00;0.00;;;11.20;99.90;;;;;;5033822;28;21005;-84
2022/09/18 09:03:40;;;;;;;0.00;0.00;;;11.40;99.90;;;;;;5034514;28;20056;-82
2022/09/18 09:06:22;;;;;;;0.00;0.00;;;11.20;99.90;;;;;;5034102;28;20075;-83
2022/09/18 09:08:56;;;;;;;0.20;0.20;;;11.30;99.90;;;;;;5034776;28;20053;-81
2022/09/18 09:11:49;;;;;;;0.00;0.00;;;11.30;99.90;;;;;;5051013;28;20037;-82
2022/09/18 09:14:42;;;;;;;0.00;0.00;;;11.30;99.90;;;;;;5050445;28;20128;-83
2022/09/18 09:17:44;;;;;;;0.00;0.00;;;11.30;99.90;;;;;;5033624;28;20184;-82
2022/09/18 09:20:35;;;;;;;0.00;0.00;;;11.40;99.90;;;;;;5034161;28;20040;-81
2022/09/18 09:23:23;;;;;;;0.00;0.00;;;11.40;99.90;;;;;;5033740;28;20515;-82
2022/09/18 09:26:04;;;;;;;0.00;0.00;;;11.40;99.90;;;;;;5034366;28;20484;-81
2022/09/18 09:28:41;;;;;;;0.52;0.52;;;11.50;99.90;;;;;;5034571;28;20049;-82
2022/09/18 09:31:09;;;;;;;0.00;0.00;;;11.50;99.90;;;;;;5050004;28;20055;-81
2022/09/18 09:33:40;;;;;;;0.00;0.00;;;11.50;99.90;;;;;;5049990;28;20132;-81
2022/09/18 09:36:11;;;;;;;0.00;0.00;;;11.50;99.90;;;;;;5032823;28;20057;-81
2022/09/18 09:39:01;;;;;;;0.00;0.00;;;11.50;99.90;;;;;;5050520;28;20097;-82
2022/09/18 09:41:40;;;;;;;0.00;0.00;;;11.40;99.90;;;;;;5050293;28;20076;-81
2022/09/18 09:44:18;;;;;;;2.60;0.10;;;11.50;99.90;;;;;;5049982;28;20053;-81
2022/09/18 09:47:03;;;;;;;0.00;0.00;;;11.50;99.90;;;;;;5034153;28;20051;-81
2022/09/18 09:50:01;;;;;;;0.00;0.00;;;11.50;99.90;;;;;;5034094;28;20608;-81
2022/09/18 09:52:29;;;;;;;0.00;0.00;;;11.40;99.90;;;;;;4973381;28;20058;-81
2022/09/18 09:55:17;;;;;;;0.00;0.00;;;11.40;99.90;;;;;;4956533;28;20572;-81
2022/09/18 09:58:11;;;;;;;0.05;0.00;;;11.60;99.90;;;;;;4957374;28;20050;-80
2022/09/18 10:00:48;;;;;;;0.00;0.00;;;11.40;99.90;;;;;;4971455;28;20058;-80
2022/09/18 10:03:35;;;;;;;0.00;0.00;;;11.40;99.90;;;;;;4977401;28;20062;-81
2022/09/18 10:06:27;;;;;;;0.00;0.00;;;11.40;99.90;;;;;;4979770;28;20053;-81
2022/09/18 10:09:07;;;;;;;0.00;0.00;;;11.40;99.90;;;;;;4976323;28;20089;-80
2022/09/18 10:11:36;;;;;;;0.00;0.00;;;11.50;99.90;;;;;;4944552;28;20043;-80
2022/09/18 10:14:14;;;;;;;0.20;0.20;;;11.40;99.90;;;;;;4944413;28;20059;-81
2022/09/18 10:16:45;;;;;;;0.00;0.00;;;11.40;99.90;;;;;;4944200;28;20406;-81
2022/09/18 10:19:14;;;;;;;0.00;0.00;;;11.50;99.90;;;;;;4960336;28;20047;-81
2022/09/18 10:21:41;;;;;;;0.00;0.00;;;11.50;99.90;;;;;;4960063;28;20530;-81
2022/09/18 10:24:29;;;;;;;0.00;0.00;;;11.50;99.90;;;;;;4959959;28;20043;-81
2022/09/18 10:26:59;;;;;;;0.52;0.45;;;11.50;99.90;;;;;;4960264;28;20066;-81
2022/09/18 10:29:25;;;;;;;0.00;0.00;;;11.60;99.90;;;;;;4992838;28;20136;-81
2022/09/18 10:31:59;;;;;;;0.00;0.00;;;11.50;99.90;;;;;;5018434;28;20136;-81
2022/09/18 10:34:31;;;;;;;0.25;0.25;;;11.60;99.90;;;;;;5002608;28;20042;-81
2022/09/18 10:36:57;;;;;;;0.00;0.00;;;11.50;99.90;;;;;;5018383;28;20060;-81
2022/09/18 10:39:33;;;;;;;0.00;0.00;;;11.60;99.90;;;;;;5018161;28;20050;-81
2022/09/18 10:42:04;;;;;;;0.00;0.00;;;11.50;99.90;;;;;;5002082;28;20449;-80
2022/09/18 10:44:35;;;;;;;0.00;0.00;;;11.60;99.90;;;;;;5002080;28;20045;-81
2022/09/18 10:47:06;;;;;;;0.00;0.00;;;11.50;99.90;;;;;;5019397;28;20050;-81
2022/09/18 10:49:39;;;;;;;0.00;0.00;;;11.60;99.90;;;;;;5019426;28;20045;-81
2022/09/18 10:52:34;;;;;;;0.00;0.00;;;11.50;99.90;;;;;;5019230;28;20136;-82
2022/09/18 10:55:07;;;;;;;0.00;0.00;;;11.60;99.90;;;;;;5018959;28;20049;-82
2022/09/18 10:57:39;;;;;;;0.70;0.22;;;11.60;99.90;;;;;;5018681;28;20493;-81
2022/09/18 11:00:11;;;;;;;0.10;0.10;;;11.60;99.90;;;;;;5018731;28;20087;-81
2022/09/18 11:02:57;;;;;;;0.00;0.00;;;11.60;99.90;;;;;;5018950;28;20060;-82
2022/09/18 11:05:28;;;;;;;0.00;0.00;;;11.70;99.90;;;;;;5051448;28;20056;-81
2022/09/18 11:07:57;;;;;;;0.00;0.00;;;11.80;99.90;;;;;;5018646;28;20060;-82
2022/09/18 11:10:25;;;;;;;0.00;0.00;;;11.80;99.90;;;;;;5017731;28;20062;-81
2022/09/18 11:12:55;;;;;;;0.00;0.00;;;11.80;99.90;;;;;;5035034;28;20375;-81
2022/09/18 11:15:24;;;;;;;0.00;0.00;;;11.80;99.90;;;;;;5018572;28;20045;-81
2022/09/18 11:17:53;;;;;;;0.00;0.00;;;11.80;99.90;;;;;;5018534;28;20076;-81
2022/09/18 11:20:27;;;;;;;0.00;0.00;;;11.80;99.90;;;;;;5034487;28;20048;-81
2022/09/18 11:23:12;;;;;;;0.00;0.00;;;11.80;99.90;;;;;;5018669;28;20108;-82
2022/09/18 11:25:37;;;;;;;0.00;0.00;;;11.80;99.90;;;;;;5018568;28;20045;-81
2022/09/18 11:28:20;;;;;;;0.00;0.00;;;11.90;99.90;;;;;;5018420;28;20052;-81
2022/09/18 11:31:05;;;;;;;0.00;0.00;;;11.90;99.90;;;;;;5035097;28;20049;-81
2022/09/18 11:33:48;;;;;;;0.00;0.00;;;11.90;99.90;;;;;;5035210;28;20067;-81
2022/09/18 11:36:22;;;;;;;0.00;0.00;;;12.10;99.90;;;;;;5018267;28;20053;-81
2022/09/18 11:38:48;;;;;;;0.00;0.00;;;11.90;99.90;;;;;;5018058;28;20103;-81
2022/09/18 11:41:25;;;;;;;0.00;0.00;;;11.90;99.90;;;;;;5018245;28;20100;-81
2022/09/18 11:44:36;;;;;;;0.00;0.00;;;12.00;99.90;;;;;;5018210;28;20072;-81
2022/09/18 11:47:26;;;;;;;0.00;0.00;;;12.00;99.90;;;;;;5033482;28;20089;-81
2022/09/18 11:50:08;;;;;;;0.00;0.00;;;12.00;99.90;;;;;;5017439;28;20525;-82
2022/09/18 11:52:46;;;;;;;0.00;0.00;;;12.00;99.90;;;;;;5017015;28;20201;-81
2022/09/18 11:55:38;;;;;;;0.00;0.00;;;12.00;99.90;;;;;;5016643;28;20191;-82
2022/09/18 11:58:29;;;;;;;0.00;0.00;;;12.10;99.90;;;;;;5016490;28;20093;-81
2022/09/18 12:01:05;;;;;;;0.00;0.00;;;12.20;99.90;;;;;;5050133;28;20076;-82
2022/09/18 12:03:41;;;;;;;0.00;0.00;;;12.20;99.90;;;;;;5000449;28;20049;-80
2022/09/18 12:06:15;;;;;;;0.00;0.00;;;12.30;99.90;;;;;;5033232;28;20084;-81
2022/09/18 12:09:00;;;;;;;0.22;0.13;;;12.30;99.90;;;;;;5033322;28;20144;-80
2022/09/18 12:11:39;;;;;;;0.00;0.00;;;12.30;99.90;;;;;;5016618;28;20049;-81
2022/09/18 12:14:29;;;;;;;0.00;0.00;;;12.40;99.90;;;;;;5016542;28;20131;-81
2022/09/18 12:16:59;;;;;;;0.00;0.00;;;12.50;99.90;;;;;;5032911;28;20049;-81
2022/09/18 12:19:40;;;;;;;0.00;0.00;;;12.70;99.90;;;;;;5032680;28;20172;-81
2022/09/18 12:22:44;;;;;;;0.20;0.20;;;12.60;99.90;;;;;;5032853;28;20061;-81
2022/09/18 12:25:14;;;;;;;0.00;0.00;;;12.70;99.90;;;;;;5032054;28;20053;-81
2022/09/18 12:27:53;;;;;;;0.00;0.00;;;12.70;99.90;;;;;;4999729;28;20409;-80
2022/09/18 12:30:24;;;;;;;0.65;0.35;;;12.80;99.90;;;;;;4999931;28;20421;-80
2022/09/18 12:33:13;;;;;;;0.00;0.00;;;12.80;99.90;;;;;;5032896;28;20056;-81
2022/09/18 12:36:00;;;;;;;0.00;0.00;;;12.90;99.90;;;;;;4999793;28;20077;-82
2022/09/18 12:38:31;;;;;;;0.28;0.28;;;12.90;99.90;;;;;;5032497;28;20049;-81
2022/09/18 12:41:06;;;;;;;0.00;0.00;;;12.90;99.90;;;;;;4999712;28;20053;-81
2022/09/18 12:43:50;;;;;;;0.00;0.00;;;12.90;99.90;;;;;;5015941;28;20049;-81
2022/09/18 12:46:27;;;;;;;0.00;0.00;;;13.00;99.90;;;;;;5032372;28;20416;-81
2022/09/18 12:49:01;;;;;;;0.00;0.00;;;13.10;99.90;;;;;;4999764;28;20387;-81
2022/09/18 12:51:32;;;;;;;0.55;0.30;;;13.20;99.90;;;;;;4999592;28;20475;-81
2022/09/18 12:54:30;;;;;;;0.00;0.00;;;13.10;99.90;;;;;;5032030;28;20520;-81
2022/09/18 12:57:03;;;;;;;0.20;0.20;;;13.20;99.90;;;;;;5018742;28;20053;-81
2022/09/18 12:59:47;;;;;;;0.00;0.00;;;13.20;99.90;;;;;;5034918;28;20056;-81
2022/09/18 13:02:36;;;;;;;0.00;0.00;;;13.20;99.90;;;;;;5044438;28;20515;-81
2022/09/18 13:05:08;;;;;;;0.30;0.30;;;13.20;99.90;;;;;;5036214;28;20092;-81
2022/09/18 13:07:42;;;;;;;0.57;0.28;;;13.20;99.90;;;;;;5036198;28;20412;-81
2022/09/18 13:10:28;;;;;;;0.53;0.37;;;13.20;99.90;;;;;;5052854;28;20052;-82
2022/09/18 13:13:31;;;;;;;0.08;0.08;;;13.20;99.90;;;;;;5036009;28;20123;-82
2022/09/18 13:16:01;;;;;;;0.00;0.00;;;13.20;99.90;;;;;;5036145;28;20131;-82